sensor_id;sensor_type;location;lat;lon;timestamp;pressure;altitude;pressure_sealevel;temperature;humidity
44198;BME280;30157;55.512;37.764;2023-07-31T00:01:18;99081.19;;;13.68;83.99
44198;BME280;30157;55.512;37.764;2023-07-31T00:03:45;99163.16;;;14.20;83.81
44198;BME280;30157;55.512;37.764;2023-07-31T00:06:11;99236.94;;;14.54;83.90
44198;BME280;30157;55.512;37.764;2023-07-31T00:08:37;99133.28;;;14.01;83.54
44198;BME280;30157;55.512;37.764;2023-07-31T00:11:03;99188.91;;;14.31;83.52
44198;BME280;30157;55.512;37.764;2023-07-31T00:13:28;99166.59;;;14.21;83.57
44198;BME280;30157;55.512;37.764;2023-07-31T00:15:54;99051.94;;;13.26;83.65
44198;BME280;30157;55.512;37.764;2023-07-31T00:18:20;99117.63;;;13.71;83.99
44198;BME280;30157;55.512;37.764;2023-07-31T00:20:46;99188.84;;;14.04;84.46
44198;BME280;30157;55.512;37.764;2023-07-31T00:23:11;99115.31;;;13.60;84.71
44198;BME280;30157;55.512;37.764;2023-07-31T00:25:38;99231.38;;;14.36;84.71
44198;BME280;30157;55.512;37.764;2023-07-31T00:28:04;99204.78;;;14.23;84.30
44198;BME280;30157;55.512;37.764;2023-07-31T00:30:29;99203.03;;;14.24;84.33
44198;BME280;30157;55.512;37.764;2023-07-31T00:32:55;99151.06;;;13.86;83.78
44198;BME280;30157;55.512;37.764;2023-07-31T00:35:21;99239.19;;;14.36;83.80
44198;BME280;30157;55.512;37.764;2023-07-31T00:37:47;99185.34;;;14.04;83.73
44198;BME280;30157;55.512;37.764;2023-07-31T00:40:12;99228.91;;;14.32;83.80
44198;BME280;30157;55.512;37.764;2023-07-31T00:42:39;99222.06;;;14.27;83.85
44198;BME280;30157;55.512;37.764;2023-07-31T00:45:05;99209.28;;;14.18;83.62
44198;BME280;30157;55.512;37.764;2023-07-31T00:47:31;99152.28;;;13.74;84.15
44198;BME280;30157;55.512;37.764;2023-07-31T00:49:57;99224.16;;;14.15;84.30
44198;BME280;30157;55.512;37.764;2023-07-31T00:52:23;99196.09;;;13.93;84.40
44198;BME280;30157;55.512;37.764;2023-07-31T00:54:49;99220.94;;;14.06;84.78
44198;BME280;30157;55.512;37.764;2023-07-31T00:57:16;99224.63;;;13.99;85.01
44198;BME280;30157;55.512;37.764;2023-07-31T00:59:41;99230.75;;;13.98;85.61
44198;BME280;30157;55.512;37.764;2023-07-31T01:02:07;99208.25;;;13.94;85.66
44198;BME280;30157;55.512;37.764;2023-07-31T01:04:33;99208.09;;;14.00;85.35
44198;BME280;30157;55.512;37.764;2023-07-31T01:10:26;99215.84;;;14.02;85.01
44198;BME280;30157;55.512;37.764;2023-07-31T01:12:53;99201.34;;;13.91;84.85
44198;BME280;30157;55.512;37.764;2023-07-31T01:15:20;99111.81;;;13.28;84.82
44198;BME280;30157;55.512;37.764;2023-07-31T01:17:46;99198.97;;;13.84;84.96
44198;BME280;30157;55.512;37.764;2023-07-31T01:20:17;99165.59;;;13.65;84.81
44198;BME280;30157;55.512;37.764;2023-07-31T01:25:59;99211.88;;;13.88;85.20
44198;BME280;30157;55.512;37.764;2023-07-31T01:28:53;99198.38;;;13.74;85.56
44198;BME280;30157;55.512;37.764;2023-07-31T01:31:23;99219.03;;;13.82;85.84
44198;BME280;30157;55.512;37.764;2023-07-31T01:33:53;99103.47;;;13.15;85.61
44198;BME280;30157;55.512;37.764;2023-07-31T01:36:20;99205.13;;;13.81;85.84
44198;BME280;30157;55.512;37.764;2023-07-31T01:38:46;99177.22;;;13.53;85.74
44198;BME280;30157;55.512;37.764;2023-07-31T01:41:12;99225.88;;;13.86;85.37
44198;BME280;30157;55.512;37.764;2023-07-31T01:43:38;99099.28;;;13.09;85.35
44198;BME280;30157;55.512;37.764;2023-07-31T01:46:05;99210.25;;;13.84;85.46
44198;BME280;30157;55.512;37.764;2023-07-31T01:48:31;99122.16;;;13.31;85.34
44198;BME280;30157;55.512;37.764;2023-07-31T01:51:01;99214.53;;;13.87;85.09
44198;BME280;30157;55.512;37.764;2023-07-31T01:53:28;99209.31;;;13.87;85.16
44198;BME280;30157;55.512;37.764;2023-07-31T01:55:54;99188.06;;;13.69;85.04
44198;BME280;30157;55.512;37.764;2023-07-31T01:58:20;99179.69;;;13.58;85.19
44198;BME280;30157;55.512;37.764;2023-07-31T02:00:46;99122.38;;;13.23;85.15
44198;BME280;30157;55.512;37.764;2023-07-31T02:03:11;99200.19;;;13.70;85.55
44198;BME280;30157;55.512;37.764;2023-07-31T02:05:44;99220.06;;;13.76;85.44
44198;BME280;30157;55.512;37.764;2023-07-31T02:08:10;99078.22;;;12.86;85.60
44198;BME280;30157;55.512;37.764;2023-07-31T02:10:36;99194.56;;;13.54;85.72
44198;BME280;30157;55.512;37.764;2023-07-31T02:13:02;99184.19;;;13.51;85.66
44198;BME280;30157;55.512;37.764;2023-07-31T02:15:30;98937.19;;;12.02;85.53
44198;BME280;30157;55.512;37.764;2023-07-31T02:17:56;99217.56;;;13.71;85.82
44198;BME280;30157;55.512;37.764;2023-07-31T02:20:22;99211.53;;;13.69;85.97
44198;BME280;30157;55.512;37.764;2023-07-31T02:22:48;99215.84;;;13.70;86.04
44198;BME280;30157;55.512;37.764;2023-07-31T02:25:13;99192.91;;;13.52;86.13
44198;BME280;30157;55.512;37.764;2023-07-31T02:27:39;99195.31;;;13.58;86.26
44198;BME280;30157;55.512;37.764;2023-07-31T02:30:06;99225.28;;;13.74;86.37
44198;BME280;30157;55.512;37.764;2023-07-31T02:32:32;99197.22;;;13.51;86.23
44198;BME280;30157;55.512;37.764;2023-07-31T02:34:57;99232.28;;;13.74;86.50
44198;BME280;30157;55.512;37.764;2023-07-31T02:37:25;99230.34;;;13.81;86.50
44198;BME280;30157;55.512;37.764;2023-07-31T02:39:51;99125.00;;;13.22;86.36
44198;BME280;30157;55.512;37.764;2023-07-31T02:42:17;99161.91;;;13.41;86.53
44198;BME280;30157;55.512;37.764;2023-07-31T02:44:43;99147.47;;;13.27;86.61
44198;BME280;30157;55.512;37.764;2023-07-31T02:47:09;99142.09;;;13.32;86.78
44198;BME280;30157;55.512;37.764;2023-07-31T02:49:34;99231.63;;;13.97;86.65
44198;BME280;30157;55.512;37.764;2023-07-31T02:52:00;99198.59;;;13.98;86.36
44198;BME280;30157;55.512;37.764;2023-07-31T02:54:26;99188.59;;;14.12;85.62
44198;BME280;30157;55.512;37.764;2023-07-31T02:56:51;99221.84;;;14.65;84.88
44198;BME280;30157;55.512;37.764;2023-07-31T02:59:17;99175.03;;;14.57;83.82
44198;BME280;30157;55.512;37.764;2023-07-31T03:01:44;99155.88;;;14.87;82.95
44198;BME280;30157;55.512;37.764;2023-07-31T03:04:10;99224.06;;;15.58;82.10
44198;BME280;30157;55.512;37.764;2023-07-31T03:06:36;99188.72;;;15.71;81.47
44198;BME280;30157;55.512;37.764;2023-07-31T03:09:02;99152.78;;;15.76;80.71
44198;BME280;30157;55.512;37.764;2023-07-31T03:11:27;99212.16;;;16.45;80.74
44198;BME280;30157;55.512;37.764;2023-07-31T03:13:53;99143.06;;;16.26;80.11
44198;BME280;30157;55.512;37.764;2023-07-31T03:16:19;99217.91;;;17.00;79.72
44198;BME280;30157;55.512;37.764;2023-07-31T03:18:45;99218.75;;;17.22;78.69
44198;BME280;30157;55.512;37.764;2023-07-31T03:21:11;99215.88;;;17.49;78.18
44198;BME280;30157;55.512;37.764;2023-07-31T03:23:37;99127.56;;;17.29;77.19
44198;BME280;30157;55.512;37.764;2023-07-31T03:26:07;99214.25;;;18.07;76.39
44198;BME280;30157;55.512;37.764;2023-07-31T03:28:33;99120.06;;;17.80;75.42
44198;BME280;30157;55.512;37.764;2023-07-31T03:30:59;99089.81;;;17.90;74.30
44198;BME280;30157;55.512;37.764;2023-07-31T03:33:25;99186.72;;;18.71;73.15
44198;BME280;30157;55.512;37.764;2023-07-31T03:35:52;99199.09;;;19.06;72.14
44198;BME280;30157;55.512;37.764;2023-07-31T03:38:19;99217.34;;;19.44;70.35
44198;BME280;30157;55.512;37.764;2023-07-31T03:40:45;99202.50;;;19.60;69.50
44198;BME280;30157;55.512;37.764;2023-07-31T03:43:12;99183.47;;;19.55;69.37
44198;BME280;30157;55.512;37.764;2023-07-31T03:45:39;99142.97;;;19.58;67.98
44198;BME280;30157;55.512;37.764;2023-07-31T03:48:05;99207.50;;;20.16;66.34
44198;BME280;30157;55.512;37.764;2023-07-31T03:50:31;99213.91;;;20.28;66.22
44198;BME280;30157;55.512;37.764;2023-07-31T03:52:57;99205.56;;;20.20;65.83
44198;BME280;30157;55.512;37.764;2023-07-31T03:55:22;99215.44;;;20.32;65.89
44198;BME280;30157;55.512;37.764;2023-07-31T03:57:48;99129.91;;;20.06;65.20
44198;BME280;30157;55.512;37.764;2023-07-31T04:00:14;99184.81;;;20.61;64.55
44198;BME280;30157;55.512;37.764;2023-07-31T04:02:41;99214.75;;;20.92;63.95
44198;BME280;30157;55.512;37.764;2023-07-31T04:05:07;99143.56;;;20.76;62.42
44198;BME280;30157;55.512;37.764;2023-07-31T04:07:33;99188.09;;;21.27;62.08
44198;BME280;30157;55.512;37.764;2023-07-31T04:09:59;99195.41;;;21.53;61.22
44198;BME280;30157;55.512;37.764;2023-07-31T04:12:25;99202.63;;;21.65;60.38
44198;BME280;30157;55.512;37.764;2023-07-31T04:14:51;99151.88;;;21.60;59.90
44198;BME280;30157;55.512;37.764;2023-07-31T04:17:17;99192.53;;;22.15;59.03
44198;BME280;30157;55.512;37.764;2023-07-31T04:19:43;99221.19;;;22.50;57.28
44198;BME280;30157;55.512;37.764;2023-07-31T04:22:09;99146.56;;;22.03;57.92
44198;BME280;30157;55.512;37.764;2023-07-31T04:24:35;99137.31;;;22.10;57.88
44198;BME280;30157;55.512;37.764;2023-07-31T04:27:01;99202.28;;;22.84;57.36
44198;BME280;30157;55.512;37.764;2023-07-31T04:29:27;99188.72;;;22.75;56.64
44198;BME280;30157;55.512;37.764;2023-07-31T04:31:53;99209.53;;;22.94;55.91
44198;BME280;30157;55.512;37.764;2023-07-31T04:34:18;99183.66;;;22.85;56.00
44198;BME280;30157;55.512;37.764;2023-07-31T04:36:44;99208.66;;;22.94;55.61
44198;BME280;30157;55.512;37.764;2023-07-31T04:39:10;99222.69;;;23.09;55.55
44198;BME280;30157;55.512;37.764;2023-07-31T04:41:35;99188.66;;;22.90;56.17
44198;BME280;30157;55.512;37.764;2023-07-31T04:44:01;99223.31;;;23.12;56.08
44198;BME280;30157;55.512;37.764;2023-07-31T04:46:27;99191.38;;;23.15;55.36
44198;BME280;30157;55.512;37.764;2023-07-31T04:48:53;99195.56;;;23.58;54.95
44198;BME280;30157;55.512;37.764;2023-07-31T04:51:18;99174.19;;;23.61;53.66
44198;BME280;30157;55.512;37.764;2023-07-31T04:53:44;99194.06;;;23.80;53.42
44198;BME280;30157;55.512;37.764;2023-07-31T04:56:10;99227.53;;;24.32;53.28
44198;BME280;30157;55.512;37.764;2023-07-31T04:58:35;99213.47;;;24.56;52.17
44198;BME280;30157;55.512;37.764;2023-07-31T05:01:01;99223.38;;;25.03;51.27
44198;BME280;30157;55.512;37.764;2023-07-31T05:03:27;99225.84;;;25.17;50.53
44198;BME280;30157;55.512;37.764;2023-07-31T05:05:53;99220.50;;;25.06;50.66
44198;BME280;30157;55.512;37.764;2023-07-31T05:08:18;99227.88;;;25.13;50.93
44198;BME280;30157;55.512;37.764;2023-07-31T05:10:44;99215.75;;;25.22;51.20
44198;BME280;30157;55.512;37.764;2023-07-31T05:13:10;99221.88;;;25.47;50.83
44198;BME280;30157;55.512;37.764;2023-07-31T05:15:35;99198.09;;;25.45;50.07
44198;BME280;30157;55.512;37.764;2023-07-31T05:18:01;99221.69;;;25.84;49.64
44198;BME280;30157;55.512;37.764;2023-07-31T05:20:27;99227.88;;;25.96;48.89
44198;BME280;30157;55.512;37.764;2023-07-31T05:22:53;99237.75;;;25.94;48.10
44198;BME280;30157;55.512;37.764;2023-07-31T05:25:19;99189.69;;;25.86;47.73
44198;BME280;30157;55.512;37.764;2023-07-31T05:27:45;99207.31;;;26.43;47.04
44198;BME280;30157;55.512;37.764;2023-07-31T05:30:11;99218.88;;;26.65;46.29
44198;BME280;30157;55.512;37.764;2023-07-31T05:32:36;99219.03;;;26.96;46.17
44198;BME280;30157;55.512;37.764;2023-07-31T05:35:02;99213.03;;;27.15;45.14
44198;BME280;30157;55.512;37.764;2023-07-31T05:37:30;99158.50;;;26.77;45.14
44198;BME280;30157;55.512;37.764;2023-07-31T05:39:56;99140.97;;;26.74;44.83
44198;BME280;30157;55.512;37.764;2023-07-31T05:42:22;99194.34;;;27.26;44.57
44198;BME280;30157;55.512;37.764;2023-07-31T05:44:48;99202.53;;;27.35;43.98
44198;BME280;30157;55.512;37.764;2023-07-31T05:47:14;99185.03;;;27.21;43.63
44198;BME280;30157;55.512;37.764;2023-07-31T05:49:39;99233.91;;;27.31;43.22
44198;BME280;30157;55.512;37.764;2023-07-31T05:52:05;99223.97;;;27.33;44.04
44198;BME280;30157;55.512;37.764;2023-07-31T05:54:32;99220.06;;;27.79;43.63
44198;BME280;30157;55.512;37.764;2023-07-31T05:56:59;99235.94;;;28.12;42.46
44198;BME280;30157;55.512;37.764;2023-07-31T05:59:25;99212.03;;;27.70;42.35
44198;BME280;30157;55.512;37.764;2023-07-31T06:01:51;99160.63;;;27.58;42.41
44198;BME280;30157;55.512;37.764;2023-07-31T06:04:17;99215.09;;;27.96;42.36
44198;BME280;30157;55.512;37.764;2023-07-31T06:06:43;99156.72;;;27.20;41.95
44198;BME280;30157;55.512;37.764;2023-07-31T06:09:08;99230.38;;;27.94;42.51
44198;BME280;30157;55.512;37.764;2023-07-31T06:11:34;99162.72;;;27.95;41.74
44198;BME280;30157;55.512;37.764;2023-07-31T06:14:00;99174.69;;;28.31;41.21
44198;BME280;30157;55.512;37.764;2023-07-31T06:16:26;99238.97;;;28.69;41.25
44198;BME280;30157;55.512;37.764;2023-07-31T06:18:52;99218.03;;;28.74;40.38
44198;BME280;30157;55.512;37.764;2023-07-31T06:21:18;99180.66;;;28.74;39.47
44198;BME280;30157;55.512;37.764;2023-07-31T06:23:44;99222.00;;;29.29;39.62
44198;BME280;30157;55.512;37.764;2023-07-31T06:26:10;99224.22;;;29.53;38.52
44198;BME280;30157;55.512;37.764;2023-07-31T06:28:35;99240.41;;;29.32;38.56
44198;BME280;30157;55.512;37.764;2023-07-31T06:31:01;99146.66;;;28.86;38.92
44198;BME280;30157;55.512;37.764;2023-07-31T06:33:27;99231.78;;;29.67;38.92
44198;BME280;30157;55.512;37.764;2023-07-31T06:35:53;99222.94;;;30.14;37.40
44198;BME280;30157;55.512;37.764;2023-07-31T06:38:24;99240.22;;;30.20;36.55
44198;BME280;30157;55.512;37.764;2023-07-31T06:40:50;99243.72;;;30.21;35.94
44198;BME280;30157;55.512;37.764;2023-07-31T06:43:16;99236.13;;;30.54;35.49
44198;BME280;30157;55.512;37.764;2023-07-31T06:45:41;99223.16;;;30.77;35.38
44198;BME280;30157;55.512;37.764;2023-07-31T06:48:07;99224.53;;;30.81;34.47
44198;BME280;30157;55.512;37.764;2023-07-31T06:50:33;99208.69;;;30.70;33.33
44198;BME280;30157;55.512;37.764;2023-07-31T06:52:59;99234.41;;;31.16;33.65
44198;BME280;30157;55.512;37.764;2023-07-31T06:55:25;99166.97;;;31.21;33.10
44198;BME280;30157;55.512;37.764;2023-07-31T06:57:53;99179.16;;;31.60;31.96
44198;BME280;30157;55.512;37.764;2023-07-31T07:00:21;99158.91;;;31.65;31.00
44198;BME280;30157;55.512;37.764;2023-07-31T07:02:48;99229.97;;;32.30;29.56
44198;BME280;30157;55.512;37.764;2023-07-31T07:05:14;99148.97;;;31.92;29.27
44198;BME280;30157;55.512;37.764;2023-07-31T07:07:41;99207.56;;;32.48;28.68
44198;BME280;30157;55.512;37.764;2023-07-31T07:10:07;99227.47;;;32.80;28.95
44198;BME280;30157;55.512;37.764;2023-07-31T07:12:33;99217.25;;;32.92;28.90
44198;BME280;30157;55.512;37.764;2023-07-31T07:15:00;99233.84;;;32.87;28.18
44198;BME280;30157;55.512;37.764;2023-07-31T07:17:28;99109.97;;;31.72;28.29
44198;BME280;30157;55.512;37.764;2023-07-31T07:19:58;99238.66;;;32.67;28.59
44198;BME280;30157;55.512;37.764;2023-07-31T07:22:27;99213.44;;;32.43;28.70
44198;BME280;30157;55.512;37.764;2023-07-31T07:24:53;99192.78;;;32.52;27.95
44198;BME280;30157;55.512;37.764;2023-07-31T07:27:19;99227.13;;;33.08;27.00
44198;BME280;30157;55.512;37.764;2023-07-31T07:29:46;99175.41;;;32.81;26.66
44198;BME280;30157;55.512;37.764;2023-07-31T07:32:12;99142.28;;;32.47;26.22
44198;BME280;30157;55.512;37.764;2023-07-31T07:34:38;99162.94;;;32.63;26.46
44198;BME280;30157;55.512;37.764;2023-07-31T07:37:04;99250.31;;;32.84;26.79
44198;BME280;30157;55.512;37.764;2023-07-31T07:39:30;99216.25;;;32.42;26.90
44198;BME280;30157;55.512;37.764;2023-07-31T07:41:55;99242.91;;;32.94;26.67
44198;BME280;30157;55.512;37.764;2023-07-31T07:44:21;99186.09;;;32.56;26.35
44198;BME280;30157;55.512;37.764;2023-07-31T07:46:47;99247.81;;;32.99;25.97
44198;BME280;30157;55.512;37.764;2023-07-31T07:49:13;99179.13;;;32.88;26.33
44198;BME280;30157;55.512;37.764;2023-07-31T07:51:38;99237.75;;;33.50;26.46
44198;BME280;30157;55.512;37.764;2023-07-31T07:54:04;99230.88;;;33.40;26.15
44198;BME280;30157;55.512;37.764;2023-07-31T07:56:30;99240.41;;;33.67;25.28
44198;BME280;30157;55.512;37.764;2023-07-31T07:58:55;99209.47;;;33.88;24.62
44198;BME280;30157;55.512;37.764;2023-07-31T08:01:21;99246.78;;;33.91;25.29
44198;BME280;30157;55.512;37.764;2023-07-31T08:03:47;99235.75;;;33.28;25.33
44198;BME280;30157;55.512;37.764;2023-07-31T08:06:14;99217.72;;;33.04;26.21
44198;BME280;30157;55.512;37.764;2023-07-31T08:08:40;99220.94;;;32.99;26.30
44198;BME280;30157;55.512;37.764;2023-07-31T08:11:06;99246.50;;;33.44;25.48
44198;BME280;30157;55.512;37.764;2023-07-31T08:13:32;99190.34;;;33.58;24.63
44198;BME280;30157;55.512;37.764;2023-07-31T08:15:57;99238.28;;;34.19;24.01
44198;BME280;30157;55.512;37.764;2023-07-31T08:18:24;99141.94;;;33.58;24.79
44198;BME280;30157;55.512;37.764;2023-07-31T08:20:49;99258.47;;;34.23;24.26
44198;BME280;30157;55.512;37.764;2023-07-31T08:23:15;99241.75;;;34.27;23.74
44198;BME280;30157;55.512;37.764;2023-07-31T08:25:41;99214.03;;;34.58;23.43
44198;BME280;30157;55.512;37.764;2023-07-31T08:28:07;99243.56;;;34.83;23.25
44198;BME280;30157;55.512;37.764;2023-07-31T08:30:33;99240.84;;;34.52;23.77
44198;BME280;30157;55.512;37.764;2023-07-31T08:32:59;99247.22;;;34.59;23.70
44198;BME280;30157;55.512;37.764;2023-07-31T08:35:26;99234.63;;;34.82;24.08
44198;BME280;30157;55.512;37.764;2023-07-31T08:37:54;99215.97;;;35.19;23.40
44198;BME280;30157;55.512;37.764;2023-07-31T08:40:20;99247.84;;;35.92;23.51
44198;BME280;30157;55.512;37.764;2023-07-31T08:42:49;99226.63;;;36.04;23.05
44198;BME280;30157;55.512;37.764;2023-07-31T08:45:17;99251.00;;;36.25;21.38
44198;BME280;30157;55.512;37.764;2023-07-31T08:47:48;99236.63;;;35.88;22.32
44198;BME280;30157;55.512;37.764;2023-07-31T08:50:16;99155.72;;;34.42;23.18
44198;BME280;30157;55.512;37.764;2023-07-31T08:52:42;99250.97;;;35.04;22.44
44198;BME280;30157;55.512;37.764;2023-07-31T08:55:08;99256.66;;;35.32;23.05
44198;BME280;30157;55.512;37.764;2023-07-31T08:57:36;99165.66;;;34.96;22.58
44198;BME280;30157;55.512;37.764;2023-07-31T09:00:04;99247.69;;;35.40;22.33
44198;BME280;30157;55.512;37.764;2023-07-31T09:02:56;99165.31;;;33.49;22.76
44198;BME280;30157;55.512;37.764;2023-07-31T09:05:22;99220.72;;;31.90;25.46
44198;BME280;30157;55.512;37.764;2023-07-31T09:07:49;99192.84;;;31.57;25.69
44198;BME280;30157;55.512;37.764;2023-07-31T09:10:15;99255.03;;;33.23;24.40
44198;BME280;30157;55.512;37.764;2023-07-31T09:12:41;99257.94;;;34.19;23.15
44198;BME280;30157;55.512;37.764;2023-07-31T09:15:08;99259.38;;;32.91;24.83
44198;BME280;30157;55.512;37.764;2023-07-31T09:17:36;99203.31;;;32.03;25.08
44198;BME280;30157;55.512;37.764;2023-07-31T09:20:21;99195.72;;;32.75;23.44
44198;BME280;30157;55.512;37.764;2023-07-31T09:22:48;99259.44;;;33.82;23.91
44198;BME280;30157;55.512;37.764;2023-07-31T09:27:53;99257.34;;;34.48;22.86
44198;BME280;30157;55.512;37.764;2023-07-31T09:30:20;99201.00;;;34.70;21.90
44198;BME280;30157;55.512;37.764;2023-07-31T09:32:47;99248.31;;;33.03;23.88
44198;BME280;30157;55.512;37.764;2023-07-31T09:35:19;99196.22;;;32.87;24.29
44198;BME280;30157;55.512;37.764;2023-07-31T09:37:53;99256.53;;;34.40;22.84
44198;BME280;30157;55.512;37.764;2023-07-31T09:40:29;99258.75;;;34.67;23.05
44198;BME280;30157;55.512;37.764;2023-07-31T09:42:57;99252.00;;;34.40;22.96
44198;BME280;30157;55.512;37.764;2023-07-31T09:45:25;99221.66;;;35.24;22.30
44198;BME280;30157;55.512;37.764;2023-07-31T09:47:51;99229.94;;;35.76;21.51
44198;BME280;30157;55.512;37.764;2023-07-31T09:50:19;99084.38;;;34.85;21.73
44198;BME280;30157;55.512;37.764;2023-07-31T09:52:45;99234.16;;;35.02;21.92
44198;BME280;30157;55.512;37.764;2023-07-31T09:55:12;99199.88;;;35.11;22.59
44198;BME280;30157;55.512;37.764;2023-07-31T09:57:40;99249.72;;;35.15;21.10
44198;BME280;30157;55.512;37.764;2023-07-31T10:00:07;99168.44;;;34.25;21.63
44198;BME280;30157;55.512;37.764;2023-07-31T10:02:39;99220.19;;;34.98;21.12
44198;BME280;30157;55.512;37.764;2023-07-31T10:05:06;99244.72;;;35.65;21.26
44198;BME280;30157;55.512;37.764;2023-07-31T10:07:39;99163.16;;;35.48;20.68
44198;BME280;30157;55.512;37.764;2023-07-31T10:10:07;99248.31;;;36.10;20.74
44198;BME280;30157;55.512;37.764;2023-07-31T10:12:34;99242.19;;;35.87;20.86
44198;BME280;30157;55.512;37.764;2023-07-31T10:15:02;99234.25;;;36.00;21.09
44198;BME280;30157;55.512;37.764;2023-07-31T10:17:33;99243.94;;;36.24;20.78
44198;BME280;30157;55.512;37.764;2023-07-31T10:20:02;99210.06;;;35.92;20.60
44198;BME280;30157;55.512;37.764;2023-07-31T10:22:32;99236.63;;;35.50;21.81
44198;BME280;30157;55.512;37.764;2023-07-31T10:25:00;99233.06;;;36.03;21.50
44198;BME280;30157;55.512;37.764;2023-07-31T10:27:26;99258.25;;;36.55;21.25
44198;BME280;30157;55.512;37.764;2023-07-31T10:29:55;99254.09;;;36.74;20.36
44198;BME280;30157;55.512;37.764;2023-07-31T10:32:21;99231.03;;;35.13;21.96
44198;BME280;30157;55.512;37.764;2023-07-31T10:34:49;99198.09;;;31.93;24.89
44198;BME280;30157;55.512;37.764;2023-07-31T10:37:40;99247.09;;;30.78;26.26
44198;BME280;30157;55.512;37.764;2023-07-31T10:40:12;99241.72;;;29.95;28.37
44198;BME280;30157;55.512;37.764;2023-07-31T10:42:46;99264.41;;;29.71;29.40
44198;BME280;30157;55.512;37.764;2023-07-31T10:45:13;99247.16;;;29.16;29.75
44198;BME280;30157;55.512;37.764;2023-07-31T10:47:43;99211.06;;;28.42;30.91
44198;BME280;30157;55.512;37.764;2023-07-31T10:50:20;99229.66;;;28.13;31.44
44198;BME280;30157;55.512;37.764;2023-07-31T10:52:48;99181.34;;;27.85;31.99
44198;BME280;30157;55.512;37.764;2023-07-31T10:55:16;99201.56;;;28.09;32.34
44198;BME280;30157;55.512;37.764;2023-07-31T10:57:48;99195.44;;;27.97;32.37
44198;BME280;30157;55.512;37.764;2023-07-31T11:00:28;99258.38;;;28.40;32.67
44198;BME280;30157;55.512;37.764;2023-07-31T11:03:05;99217.22;;;28.33;32.56
44198;BME280;30157;55.512;37.764;2023-07-31T11:06:03;99183.94;;;28.27;32.39
44198;BME280;30157;55.512;37.764;2023-07-31T11:08:33;99232.31;;;28.63;31.44
44198;BME280;30157;55.512;37.764;2023-07-31T11:13:43;99251.06;;;28.73;31.92
44198;BME280;30157;55.512;37.764;2023-07-31T11:16:11;99242.66;;;28.47;31.90
44198;BME280;30157;55.512;37.764;2023-07-31T11:18:42;99231.41;;;28.33;32.77
44198;BME280;30157;55.512;37.764;2023-07-31T11:21:28;99254.50;;;28.54;33.31
44198;BME280;30157;55.512;37.764;2023-07-31T11:23:57;99196.56;;;28.25;33.09
44198;BME280;30157;55.512;37.764;2023-07-31T11:26:23;99217.22;;;30.27;30.24
44198;BME280;30157;55.512;37.764;2023-07-31T11:28:50;99235.03;;;32.93;27.55
44198;BME280;30157;55.512;37.764;2023-07-31T11:31:17;99180.28;;;34.08;25.80
44198;BME280;30157;55.512;37.764;2023-07-31T11:33:46;99181.50;;;34.37;25.32
44198;BME280;30157;55.512;37.764;2023-07-31T11:36:18;99220.97;;;33.40;26.49
44198;BME280;30157;55.512;37.764;2023-07-31T11:38:44;99225.59;;;32.72;26.56
44198;BME280;30157;55.512;37.764;2023-07-31T11:41:10;99260.00;;;31.73;27.30
44198;BME280;30157;55.512;37.764;2023-07-31T11:43:38;99216.72;;;31.94;26.85
44198;BME280;30157;55.512;37.764;2023-07-31T11:46:04;99229.31;;;31.05;28.17
44198;BME280;30157;55.512;37.764;2023-07-31T11:48:36;99244.28;;;31.34;28.07
44198;BME280;30157;55.512;37.764;2023-07-31T11:51:09;99209.03;;;31.99;27.01
44198;BME280;30157;55.512;37.764;2023-07-31T11:53:36;99247.34;;;31.39;27.99
44198;BME280;30157;55.512;37.764;2023-07-31T11:56:05;99242.50;;;30.71;28.38
44198;BME280;30157;55.512;37.764;2023-07-31T11:58:33;99221.59;;;31.99;26.95
44198;BME280;30157;55.512;37.764;2023-07-31T12:01:00;99251.53;;;33.47;24.59
44198;BME280;30157;55.512;37.764;2023-07-31T12:03:27;99256.38;;;32.43;25.68
44198;BME280;30157;55.512;37.764;2023-07-31T12:05:53;99234.44;;;30.53;27.70
44198;BME280;30157;55.512;37.764;2023-07-31T12:08:23;99244.72;;;30.75;27.32
44198;BME280;30157;55.512;37.764;2023-07-31T12:10:53;99210.19;;;30.72;27.56
44198;BME280;30157;55.512;37.764;2023-07-31T12:13:22;99230.09;;;31.60;27.38
44198;BME280;30157;55.512;37.764;2023-07-31T12:15:48;99219.31;;;31.78;27.37
44198;BME280;30157;55.512;37.764;2023-07-31T12:18:19;99225.22;;;31.37;27.52
44198;BME280;30157;55.512;37.764;2023-07-31T12:20:54;99256.72;;;30.43;29.46
44198;BME280;30157;55.512;37.764;2023-07-31T12:23:22;99250.31;;;29.89;29.60
44198;BME280;30157;55.512;37.764;2023-07-31T12:26:01;99184.75;;;31.48;27.81
44198;BME280;30157;55.512;37.764;2023-07-31T12:28:27;99240.03;;;32.79;26.92
44198;BME280;30157;55.512;37.764;2023-07-31T12:30:59;99259.03;;;32.86;24.90
44198;BME280;30157;55.512;37.764;2023-07-31T12:33:36;99252.91;;;33.27;25.07
44198;BME280;30157;55.512;37.764;2023-07-31T12:36:03;99256.16;;;31.76;26.92
44198;BME280;30157;55.512;37.764;2023-07-31T12:38:30;99201.88;;;30.75;27.48
44198;BME280;30157;55.512;37.764;2023-07-31T12:40:56;99253.34;;;30.51;28.89
44198;BME280;30157;55.512;37.764;2023-07-31T12:43:22;99262.06;;;30.15;29.75
44198;BME280;30157;55.512;37.764;2023-07-31T12:45:48;99229.31;;;30.04;30.43
44198;BME280;30157;55.512;37.764;2023-07-31T12:48:14;99267.13;;;30.19;30.42
44198;BME280;30157;55.512;37.764;2023-07-31T12:50:40;99184.75;;;29.75;30.67
44198;BME280;30157;55.512;37.764;2023-07-31T12:53:06;99228.44;;;30.03;30.95
44198;BME280;30157;55.512;37.764;2023-07-31T12:55:32;99246.09;;;29.96;30.78
44198;BME280;30157;55.512;37.764;2023-07-31T12:58:03;99217.78;;;29.46;31.14
44198;BME280;30157;55.512;37.764;2023-07-31T13:00:29;99243.63;;;29.45;31.77
44198;BME280;30157;55.512;37.764;2023-07-31T13:02:55;99209.03;;;29.14;31.78